Time;durP1;ratioP1;P1;durP2;ratioP2;P2;SDS_P1;SDS_P2;PMS_P1;PMS_P2;Temp;Humidity;BMP_temperature;BMP_pressure;BME280_temperature;BME280_humidity;BME280_pressure;Samples;Min_cycle;Max_cycle;Signal;HPM_P1;HPM_P2
2024/04/17 00:00:48;;;;;;;78.63;74.70;;;23.40;1.00;;;;;;2612555;54;20250;-69
2024/04/17 00:03:14;;;;;;;78.80;74.87;;;23.40;1.00;;;;;;2612643;54;21360;-68
2024/04/17 00:05:40;;;;;;;78.80;74.80;;;23.40;1.00;;;;;;2612905;39;20578;-69
2024/04/17 00:08:06;;;;;;;78.20;74.30;;;23.40;1.00;;;;;;2613468;54;20530;-70
2024/04/17 00:10:31;;;;;;;80.80;76.70;;;23.40;1.00;;;;;;2614470;54;20163;-70
2024/04/17 00:12:57;;;;;;;79.80;75.70;;;23.40;1.00;;;;;;2615219;47;20170;-69
2024/04/17 00:15:23;;;;;;;79.33;75.33;;;23.40;1.00;;;;;;2614757;39;20553;-70
2024/04/17 00:17:48;;;;;;;79.97;75.97;;;23.40;1.00;;;;;;2614449;54;20199;-64
2024/04/17 00:20:14;;;;;;;79.63;75.63;;;23.40;1.00;;;;;;2614506;54;20158;-65
2024/04/17 00:22:40;;;;;;;78.90;75.00;;;23.40;1.00;;;;;;2614125;54;20155;-64
2024/04/17 00:25:05;;;;;;;78.90;74.90;;;23.40;1.00;;;;;;2614447;54;20254;-63
2024/04/17 00:27:31;;;;;;;79.37;75.37;;;23.40;1.00;;;;;;2615045;54;21364;-71
2024/04/17 00:29:57;;;;;;;79.00;75.00;;;23.40;1.00;;;;;;2614744;54;20138;-69
2024/04/17 00:32:22;;;;;;;78.43;74.53;;;23.30;1.00;;;;;;2614671;54;20178;-69
2024/04/17 00:34:48;;;;;;;77.53;73.63;;;23.30;1.00;;;;;;2614731;54;20154;-70
2024/04/17 00:37:14;;;;;;;76.97;73.17;;;23.30;1.00;;;;;;2614812;54;20143;-72
2024/04/17 00:39:39;;;;;;;77.50;73.70;;;23.30;1.00;;;;;;2615234;39;20633;-71
2024/04/17 00:42:05;;;;;;;78.20;74.30;;;23.20;1.00;;;;;;2615120;54;20247;-71
2024/04/17 00:44:31;;;;;;;77.70;73.80;;;23.20;1.00;;;;;;2615493;39;20598;-71
2024/04/17 00:46:57;;;;;;;77.77;73.87;;;23.20;1.00;;;;;;2614350;54;20167;-71
2024/04/17 00:49:22;;;;;;;77.80;73.90;;;23.10;1.00;;;;;;2614701;54;20162;-70
2024/04/17 00:51:49;;;;;;;78.00;74.10;;;23.10;1.00;;;;;;2615155;54;20166;-72
2024/04/17 00:54:16;;;;;;;77.90;74.00;;;23.10;1.00;;;;;;2615145;54;20182;-72
2024/04/17 00:56:41;;;;;;;77.60;73.70;;;23.10;1.00;;;;;;2615175;54;20503;-71
2024/04/17 00:59:08;;;;;;;77.83;73.93;;;23.00;1.00;;;;;;2614336;54;20504;-71
2024/04/17 01:01:34;;;;;;;78.10;74.20;;;23.00;1.00;;;;;;2613586;46;20159;-71
2024/04/17 01:04:00;;;;;;;77.80;73.90;;;23.00;1.00;;;;;;2613840;54;20446;-71
2024/04/17 01:06:27;;;;;;;77.97;74.07;;;23.00;1.00;;;;;;2613631;54;20139;-72
2024/04/17 01:08:53;;;;;;;78.90;74.90;;;23.00;1.00;;;;;;2615003;47;20155;-72
2024/04/17 01:11:19;;;;;;;77.83;73.93;;;23.00;1.00;;;;;;2614885;54;20467;-72
2024/04/17 01:13:45;;;;;;;78.00;74.10;;;22.90;1.00;;;;;;2615419;54;20165;-72
2024/04/17 01:16:10;;;;;;;78.73;74.73;;;23.00;1.00;;;;;;2614988;54;20214;-72
2024/04/17 01:18:38;;;;;;;78.50;74.50;;;22.90;1.00;;;;;;2615759;39;20549;-73
2024/04/17 01:21:04;;;;;;;78.80;74.80;;;22.90;1.00;;;;;;2614922;54;20185;-71
2024/04/17 01:23:29;;;;;;;77.77;73.87;;;22.90;1.00;;;;;;2614886;54;20424;-72
2024/04/17 01:25:55;;;;;;;77.80;73.90;;;22.90;1.00;;;;;;2614592;54;20399;-68
2024/04/17 01:28:21;;;;;;;78.03;74.13;;;22.90;1.00;;;;;;2614716;54;20154;-68
2024/04/17 01:30:47;;;;;;;83.20;78.53;;;22.90;1.00;;;;;;2615289;54;20159;-70
2024/04/17 01:33:12;;;;;;;78.30;74.40;;;22.80;1.00;;;;;;2614985;54;20177;-69
2024/04/17 01:35:38;;;;;;;77.93;74.03;;;22.80;1.00;;;;;;2615277;54;20254;-70
2024/04/17 01:38:04;;;;;;;78.80;74.80;;;22.80;1.00;;;;;;2613827;54;20161;-64
2024/04/17 01:40:29;;;;;;;78.30;74.40;;;22.80;1.00;;;;;;2613917;54;20763;-64
2024/04/17 01:42:55;;;;;;;78.60;74.70;;;22.80;1.00;;;;;;2614565;39;20666;-64
2024/04/17 01:45:21;;;;;;;79.00;75.00;;;22.80;1.00;;;;;;2613919;54;20238;-64
2024/04/17 01:47:46;;;;;;;77.80;74.00;;;22.80;1.00;;;;;;2614946;54;20255;-69
2024/04/17 01:50:13;;;;;;;77.60;73.70;;;22.80;1.00;;;;;;2614761;54;20162;-69
2024/04/17 01:52:38;;;;;;;77.50;73.60;;;22.80;1.00;;;;;;2614775;54;20292;-69
2024/04/17 01:55:06;;;;;;;77.77;73.87;;;22.80;1.00;;;;;;2615287;54;20427;-70
2024/04/17 01:57:31;;;;;;;78.47;74.47;;;22.80;1.00;;;;;;2614527;54;20846;-69
2024/04/17 01:59:57;;;;;;;78.13;74.20;;;22.70;1.00;;;;;;2613686;54;20415;-69
2024/04/17 02:02:23;;;;;;;77.70;73.80;;;22.70;1.00;;;;;;2613573;47;20209;-69
2024/04/17 02:04:48;;;;;;;78.70;74.70;;;22.70;1.00;;;;;;2613296;54;20194;-69
2024/04/17 02:07:14;;;;;;;78.47;74.57;;;22.70;1.00;;;;;;2614068;54;20813;-70
2024/04/17 02:09:40;;;;;;;78.53;74.63;;;22.70;1.00;;;;;;2614410;47;20162;-70
2024/04/17 02:12:06;;;;;;;78.63;74.63;;;22.70;1.00;;;;;;2614903;54;20150;-70
2024/04/17 02:14:31;;;;;;;78.60;74.70;;;22.70;1.00;;;;;;2613892;54;20195;-70
2024/04/17 02:16:57;;;;;;;78.73;74.73;;;22.70;1.00;;;;;;2614632;54;20498;-70
2024/04/17 02:19:23;;;;;;;78.30;74.40;;;22.70;1.00;;;;;;2614573;54;20178;-70
2024/04/17 02:21:48;;;;;;;78.93;74.93;;;22.70;1.00;;;;;;2614900;54;20704;-69
2024/04/17 02:24:14;;;;;;;78.70;74.70;;;22.70;1.00;;;;;;2616316;31;20600;-70
2024/04/17 02:26:40;;;;;;;78.40;74.40;;;22.70;1.00;;;;;;2613861;54;20222;-70
2024/04/17 02:29:06;;;;;;;78.40;74.50;;;22.60;1.00;;;;;;2614477;54;20154;-69
2024/04/17 02:31:32;;;;;;;79.40;75.40;;;22.70;1.00;;;;;;2614427;54;20159;-69
2024/04/17 02:33:58;;;;;;;79.00;75.00;;;22.60;1.00;;;;;;2615064;54;20952;-71
2024/04/17 02:36:23;;;;;;;77.90;74.00;;;22.60;1.00;;;;;;2615421;54;20716;-78
2024/04/17 02:38:50;;;;;;;78.27;74.37;;;22.60;1.00;;;;;;2615472;39;20575;-77
2024/04/17 02:41:16;;;;;;;78.30;74.40;;;22.60;1.00;;;;;;2614787;54;20150;-78
2024/04/17 02:43:41;;;;;;;78.70;74.70;;;22.70;1.00;;;;;;2615346;54;20530;-76
2024/04/17 02:46:07;;;;;;;79.80;75.80;;;22.70;1.00;;;;;;2614703;47;20162;-69
2024/04/17 02:48:32;;;;;;;80.07;75.97;;;22.70;1.00;;;;;;2613908;54;20242;-70
2024/04/17 02:50:58;;;;;;;80.07;75.97;;;22.70;1.00;;;;;;2614525;54;20787;-69
2024/04/17 02:53:24;;;;;;;79.70;75.70;;;22.70;1.00;;;;;;2614182;54;20182;-69
2024/04/17 02:55:49;;;;;;;79.50;75.50;;;22.70;1.00;;;;;;2614160;54;20167;-76
2024/04/17 02:58:15;;;;;;;80.00;76.00;;;22.70;1.00;;;;;;2612955;54;20151;-64
2024/04/17 03:00:41;;;;;;;79.80;75.70;;;22.80;1.00;;;;;;2612474;54;20712;-64
2024/04/17 03:03:07;;;;;;;80.30;76.20;;;22.80;1.00;;;;;;2612581;54;20186;-64
2024/04/17 03:05:35;;;;;;;79.50;75.50;;;22.80;1.00;;;;;;2612398;54;20209;-64
2024/04/17 03:08:03;;;;;;;80.30;76.20;;;22.80;1.00;;;;;;2613529;54;20203;-64
2024/04/17 03:10:28;;;;;;;80.43;76.33;;;22.70;1.00;;;;;;2612916;47;20423;-64
2024/04/17 03:12:55;;;;;;;80.97;76.80;;;22.70;1.00;;;;;;2613713;54;20510;-64
2024/04/17 03:15:21;;;;;;;80.53;76.43;;;22.70;1.00;;;;;;2614068;54;20155;-64
2024/04/17 03:17:46;;;;;;;80.33;76.23;;;22.70;1.00;;;;;;2614094;54;20447;-65
2024/04/17 03:20:12;;;;;;;80.17;76.07;;;22.80;1.00;;;;;;2614156;54;20147;-65
2024/04/17 03:22:38;;;;;;;80.50;76.40;;;22.80;1.00;;;;;;2613168;47;20627;-63
2024/04/17 03:25:04;;;;;;;79.80;75.70;;;22.70;1.00;;;;;;2613962;39;20555;-64
2024/04/17 03:27:29;;;;;;;80.67;76.57;;;22.70;1.00;;;;;;2613769;39;20522;-64
2024/04/17 03:29:55;;;;;;;81.17;77.07;;;22.70;1.00;;;;;;2613002;47;20475;-64
2024/04/17 03:32:21;;;;;;;80.00;76.00;;;22.70;1.00;;;;;;2613523;54;20158;-63
2024/04/17 03:34:47;;;;;;;80.10;76.10;;;22.70;1.00;;;;;;2613154;54;21016;-65
2024/04/17 03:37:13;;;;;;;80.87;76.77;;;22.70;1.00;;;;;;2613554;54;20166;-66
2024/04/17 03:39:38;;;;;;;81.60;77.40;;;22.70;1.00;;;;;;2613538;51;20925;-64
2024/04/17 03:42:04;;;;;;;80.40;76.30;;;22.70;1.00;;;;;;2613369;54;20154;-64
2024/04/17 03:44:30;;;;;;;80.77;76.67;;;22.70;1.00;;;;;;2614023;39;20533;-64
2024/04/17 03:46:55;;;;;;;81.00;76.90;;;22.70;1.00;;;;;;2614252;54;20263;-77
2024/04/17 03:49:21;;;;;;;81.80;77.60;;;22.70;1.00;;;;;;2615548;39;20251;-77
2024/04/17 03:51:47;;;;;;;81.53;77.33;;;22.70;1.00;;;;;;2614845;54;20149;-77
2024/04/17 03:54:12;;;;;;;81.13;76.93;;;22.70;1.00;;;;;;2615649;54;20182;-77
2024/04/17 03:56:38;;;;;;;81.43;77.23;;;22.70;1.00;;;;;;2615305;54;20680;-76
2024/04/17 03:59:04;;;;;;;81.17;76.97;;;22.70;1.00;;;;;;2615169;39;20976;-77
2024/04/17 04:01:34;;;;;;;81.80;77.53;;;22.70;1.00;;;;;;2614104;54;20155;-77
2024/04/17 04:04:00;;;;;;;81.70;77.50;;;22.70;1.00;;;;;;2613891;54;20246;-77
2024/04/17 04:06:26;;;;;;;80.63;76.53;;;22.70;1.00;;;;;;2619774;54;20427;-70
2024/04/17 04:08:51;;;;;;;81.50;77.30;;;22.70;1.00;;;;;;2619427;47;20210;-69
2024/04/17 04:11:17;;;;;;;82.60;78.30;;;22.70;1.00;;;;;;2620143;54;20170;-65
2024/04/17 04:13:43;;;;;;;81.90;77.70;;;22.60;1.00;;;;;;2614030;54;20151;-71
2024/04/17 04:16:08;;;;;;;82.30;78.00;;;22.60;1.00;;;;;;2614692;54;20139;-69
2024/04/17 04:18:34;;;;;;;82.30;78.00;;;22.70;1.00;;;;;;2615080;54;20259;-67
2024/04/17 04:21:00;;;;;;;81.70;77.40;;;22.70;1.00;;;;;;2614460;54;20256;-71
2024/04/17 04:23:25;;;;;;;81.50;77.30;;;22.70;1.00;;;;;;2614596;54;20226;-70
2024/04/17 04:25:51;;;;;;;81.27;77.07;;;22.70;1.00;;;;;;2615076;54;20158;-71
2024/04/17 04:28:16;;;;;;;82.57;78.27;;;22.70;1.00;;;;;;2614923;39;20585;-71
2024/04/17 04:30:42;;;;;;;82.30;78.00;;;22.70;1.00;;;;;;2614521;54;20166;-71
2024/04/17 04:33:08;;;;;;;82.10;77.90;;;22.70;1.00;;;;;;2614667;54;20266;-71
2024/04/17 04:35:35;;;;;;;81.67;77.40;;;22.70;1.00;;;;;;2614826;54;20842;-71
2024/04/17 04:38:00;;;;;;;82.53;78.23;;;22.60;1.00;;;;;;2614819;54;20427;-70
2024/04/17 04:40:27;;;;;;;82.80;78.50;;;22.60;1.00;;;;;;2614695;54;21186;-71
2024/04/17 04:42:53;;;;;;;83.20;78.80;;;22.60;1.00;;;;;;2614467;54;20147;-72
2024/04/17 04:45:18;;;;;;;82.43;78.03;;;22.60;1.00;;;;;;2615348;54;20985;-71
2024/04/17 04:47:44;;;;;;;83.50;79.10;;;22.60;1.00;;;;;;2615000;54;20273;-71
2024/04/17 04:50:10;;;;;;;83.53;79.13;;;22.60;1.00;;;;;;2614370;54;20186;-70
2024/04/17 04:52:35;;;;;;;81.80;77.50;;;22.60;1.00;;;;;;2614575;54;20139;-70
2024/04/17 04:55:05;;;;;;;83.47;79.07;;;22.60;1.00;;;;;;2614864;54;20163;-71
2024/04/17 04:57:31;;;;;;;83.20;78.80;;;22.50;1.00;;;;;;2613620;54;20623;-66
2024/04/17 04:59:57;;;;;;;83.90;79.50;;;22.50;1.00;;;;;;2612548;54;20422;-68
2024/04/17 05:02:23;;;;;;;83.47;79.07;;;22.50;1.00;;;;;;2612962;54;20151;-68
2024/04/17 05:04:48;;;;;;;80.90;76.90;;;22.50;1.00;;;;;;2613260;54;20147;-67
2024/04/17 05:07:14;;;;;;;80.93;76.90;;;22.50;1.00;;;;;;2614713;54;20175;-82
2024/04/17 05:09:40;;;;;;;78.53;74.63;;;22.50;1.00;;;;;;2615442;54;20159;-82
2024/04/17 05:12:06;;;;;;;80.53;76.53;;;22.50;1.00;;;;;;2615270;51;20170;-83
2024/04/17 05:14:31;;;;;;;79.17;75.27;;;22.50;1.00;;;;;;2614910;39;20564;-82
2024/04/17 05:16:57;;;;;;;79.40;75.50;;;22.50;1.00;;;;;;2614910;54;20415;-69
2024/04/17 05:19:23;;;;;;;79.93;75.97;;;22.50;1.00;;;;;;2613996;54;20162;-69
2024/04/17 05:21:48;;;;;;;81.23;77.13;;;22.40;1.00;;;;;;2614184;39;20616;-69
2024/04/17 05:24:14;;;;;;;80.57;76.57;;;22.50;1.00;;;;;;2614270;54;20162;-69
2024/04/17 05:26:42;;;;;;;81.00;76.80;;;22.40;1.00;;;;;;2613655;47;20695;-69
2024/04/17 05:29:08;;;;;;;79.77;75.77;;;22.40;1.00;;;;;;2613145;54;20173;-68
2024/04/17 05:31:33;;;;;;;80.83;76.63;;;22.50;1.00;;;;;;2613567;54;20957;-69
2024/04/17 05:33:59;;;;;;;78.67;74.67;;;22.70;1.00;;;;;;2613681;54;20200;-68
2024/04/17 05:36:26;;;;;;;78.07;74.17;;;22.90;1.00;;;;;;2613901;54;20653;-68
2024/04/17 05:38:51;;;;;;;77.70;73.80;;;23.00;1.00;;;;;;2613605;54;20174;-71
2024/04/17 05:41:17;;;;;;;78.20;74.30;;;23.10;1.00;;;;;;2613897;54;20395;-72
2024/04/17 05:43:43;;;;;;;79.10;75.10;;;23.10;1.00;;;;;;2613343;54;20170;-70
2024/04/17 05:46:09;;;;;;;77.60;73.70;;;23.10;1.00;;;;;;2613610;54;20155;-68
2024/04/17 05:48:34;;;;;;;79.17;75.47;;;23.20;1.00;;;;;;2614474;54;20151;-72
2024/04/17 05:51:00;;;;;;;76.40;72.80;;;23.10;1.00;;;;;;2614537;54;20457;-68
2024/04/17 05:53:26;;;;;;;89.47;84.87;;;23.10;1.00;;;;;;2613669;47;20190;-66
2024/04/17 05:55:52;;;;;;;79.10;75.30;;;23.40;1.00;;;;;;2610047;54;20246;-66
2024/04/17 05:58:17;;;;;;;77.73;74.13;;;23.30;1.00;;;;;;2612816;54;20170;-66
2024/04/17 06:00:43;;;;;;;78.73;74.93;;;23.10;1.00;;;;;;2613615;47;20154;-66
2024/04/17 06:03:09;;;;;;;79.20;75.40;;;22.90;1.00;;;;;;2613117;54;20246;-66
2024/04/17 06:05:34;;;;;;;78.50;74.70;;;22.70;1.00;;;;;;2613168;54;20167;-66
2024/04/17 06:08:00;;;;;;;79.30;75.50;;;22.60;1.00;;;;;;2613781;54;20167;-65
2024/04/17 06:10:26;;;;;;;80.33;76.43;;;22.50;1.00;;;;;;2613686;47;20242;-66
2024/04/17 06:12:51;;;;;;;79.67;75.77;;;22.40;1.00;;;;;;2613958;54;20174;-65
2024/04/17 06:15:17;;;;;;;79.57;75.67;;;22.40;1.00;;;;;;2613547;54;20155;-65
2024/04/17 06:17:43;;;;;;;78.10;74.30;;;22.30;1.00;;;;;;2613889;54;20207;-65
2024/04/17 06:20:08;;;;;;;79.17;75.37;;;22.30;1.00;;;;;;2614129;54;20747;-64
2024/04/17 06:22:35;;;;;;;76.73;73.03;;;22.30;1.00;;;;;;2613969;54;20141;-64
2024/04/17 06:25:01;;;;;;;77.07;73.37;;;22.20;1.00;;;;;;2614689;39;20287;-65
2024/04/17 06:27:26;;;;;;;77.57;73.77;;;22.20;1.00;;;;;;2614052;54;20455;-70
2024/04/17 06:29:52;;;;;;;78.00;74.20;;;22.20;1.00;;;;;;2613589;47;20169;-70
2024/04/17 06:32:18;;;;;;;77.30;73.60;;;22.20;1.00;;;;;;2614133;54;20173;-70
2024/04/17 06:34:43;;;;;;;76.97;73.27;;;22.20;1.00;;;;;;2614061;54;20158;-70
2024/04/17 06:37:09;;;;;;;79.40;75.50;;;22.20;1.00;;;;;;2614007;54;20166;-71
2024/04/17 06:39:36;;;;;;;78.60;74.80;;;22.20;1.00;;;;;;2615717;31;20695;-71
2024/04/17 06:42:01;;;;;;;78.70;74.80;;;22.10;1.00;;;;;;2614051;54;20150;-71
2024/04/17 06:44:27;;;;;;;80.17;76.27;;;22.10;1.00;;;;;;2614353;54;20419;-70
2024/04/17 06:46:53;;;;;;;79.70;75.80;;;22.10;1.00;;;;;;2614168;54;20162;-71
2024/04/17 06:49:19;;;;;;;78.50;74.60;;;22.10;1.00;;;;;;2613720;54;20182;-70
2024/04/17 06:51:44;;;;;;;78.47;74.57;;;22.10;1.00;;;;;;2613958;54;20146;-70
2024/04/17 06:54:10;;;;;;;79.30;75.30;;;22.10;1.00;;;;;;2613360;54;20234;-73
2024/04/17 06:56:36;;;;;;;78.90;75.00;;;22.10;1.00;;;;;;2613030;54;20214;-71
2024/04/17 06:59:01;;;;;;;78.90;74.90;;;22.00;1.00;;;;;;2613039;54;20258;-69
2024/04/17 07:01:29;;;;;;;77.70;73.90;;;22.00;1.00;;;;;;2613020;54;20660;-71
2024/04/17 07:03:55;;;;;;;79.60;75.60;;;22.00;1.00;;;;;;2613750;54;20165;-72
2024/04/17 07:06:21;;;;;;;80.40;76.30;;;22.00;1.00;;;;;;2614176;47;20439;-71
2024/04/17 07:08:47;;;;;;;80.20;76.20;;;22.00;1.00;;;;;;2613657;54;20990;-71
2024/04/17 07:11:13;;;;;;;81.30;77.30;;;22.00;1.00;;;;;;2612870;49;20451;-72
2024/04/17 07:13:40;;;;;;;80.10;76.10;;;22.00;1.00;;;;;;2612743;47;20258;-71
2024/04/17 07:16:06;;;;;;;81.30;77.30;;;22.00;1.00;;;;;;2612713;54;20206;-66
2024/04/17 07:18:32;;;;;;;79.30;75.40;;;22.00;1.00;;;;;;2612793;54;20415;-66
2024/04/17 07:20:57;;;;;;;79.87;75.87;;;21.90;1.00;;;;;;2612393;54;20288;-66
2024/04/17 07:23:23;;;;;;;80.93;76.87;;;21.90;1.00;;;;;;2612933;54;20273;-65
2024/04/17 07:25:49;;;;;;;80.67;76.67;;;21.90;1.00;;;;;;2614509;39;20562;-65
2024/04/17 07:28:15;;;;;;;80.30;76.23;;;21.90;1.00;;;;;;2614237;54;20391;-66
2024/04/17 07:30:41;;;;;;;81.77;77.57;;;21.90;1.00;;;;;;2613736;54;20964;-66
2024/04/17 07:33:07;;;;;;;79.90;75.90;;;21.90;1.00;;;;;;2613054;54;20154;-66
2024/04/17 07:35:33;;;;;;;79.47;75.40;;;21.90;1.00;;;;;;2613644;54;20403;-65
2024/04/17 07:37:58;;;;;;;80.67;76.57;;;21.90;1.00;;;;;;2613582;47;20738;-74
2024/04/17 07:40:24;;;;;;;81.00;76.90;;;21.90;1.00;;;;;;2613907;47;20185;-73
2024/04/17 07:42:50;;;;;;;82.17;78.07;;;21.90;1.00;;;;;;2614422;54;20154;-74
2024/04/17 07:45:16;;;;;;;81.70;77.60;;;21.90;1.00;;;;;;2613793;47;20159;-74
2024/04/17 07:47:41;;;;;;;79.30;75.40;;;21.90;1.00;;;;;;2613738;54;20163;-75
2024/04/17 07:50:07;;;;;;;82.50;78.47;;;21.90;1.00;;;;;;2613815;47;20166;-74
2024/04/17 07:52:33;;;;;;;80.90;77.00;;;21.90;1.00;;;;;;2613648;54;20166;-74
2024/04/17 07:54:59;;;;;;;81.20;77.20;;;21.90;1.00;;;;;;2614111;54;21015;-73
2024/04/17 07:57:25;;;;;;;81.43;77.43;;;21.90;1.00;;;;;;2613320;54;20442;-73
2024/04/17 07:59:51;;;;;;;80.90;76.90;;;21.90;1.00;;;;;;2613923;47;20426;-74
2024/04/17 08:02:17;;;;;;;81.37;77.37;;;21.90;1.00;;;;;;2612329;54;20499;-72
2024/04/17 08:04:43;;;;;;;78.90;75.10;;;21.90;1.00;;;;;;2613733;54;20166;-74
2024/04/17 08:07:09;;;;;;;80.20;76.20;;;21.90;1.00;;;;;;2613935;54;20534;-74
2024/04/17 08:09:34;;;;;;;81.10;77.10;;;21.90;1.00;;;;;;2614258;39;20617;-73
2024/04/17 08:12:00;;;;;;;79.87;75.97;;;21.80;1.00;;;;;;2613541;47;20238;-74
2024/04/17 08:14:26;;;;;;;80.20;76.30;;;21.90;1.00;;;;;;2612770;54;20159;-73
2024/04/17 08:16:51;;;;;;;79.87;75.97;;;21.90;1.00;;;;;;2613998;54;20162;-73
2024/04/17 08:19:17;;;;;;;79.57;75.67;;;21.80;1.00;;;;;;2613905;54;20207;-73
2024/04/17 08:21:43;;;;;;;78.33;74.57;;;21.90;1.00;;;;;;2614336;39;20559;-72
2024/04/17 08:24:08;;;;;;;77.70;73.80;;;21.80;1.00;;;;;;2613644;54;20162;-73
2024/04/17 08:26:34;;;;;;;77.23;73.33;;;21.80;1.00;;;;;;2613493;54;20743;-74
2024/04/17 08:29:00;;;;;;;77.70;73.80;;;21.90;1.00;;;;;;2613119;54;20163;-74
2024/04/17 08:31:28;;;;;;;78.03;74.23;;;21.90;1.00;;;;;;2613567;54;20154;-74
2024/04/17 08:33:54;;;;;;;78.10;74.20;;;21.90;1.00;;;;;;2614958;54;20154;-74
2024/04/17 08:36:20;;;;;;;79.40;75.40;;;21.90;1.00;;;;;;2614256;54;20411;-72
2024/04/17 08:38:45;;;;;;;78.30;74.40;;;21.90;1.00;;;;;;2614168;47;20240;-71
2024/04/17 08:41:11;;;;;;;77.80;74.00;;;21.90;1.00;;;;;;2613531;47;20166;-72
2024/04/17 08:43:37;;;;;;;78.33;74.53;;;21.90;1.00;;;;;;2614346;47;20163;-72
2024/04/17 08:46:04;;;;;;;77.67;73.87;;;21.90;1.00;;;;;;2614313;54;20143;-68
2024/04/17 08:48:32;;;;;;;77.40;73.60;;;21.90;1.00;;;;;;2614322;39;20654;-68
2024/04/17 08:50:59;;;;;;;77.40;73.60;;;21.90;1.00;;;;;;2613782;54;20419;-67
2024/04/17 08:53:26;;;;;;;78.40;74.50;;;21.90;1.00;;;;;;2614336;47;20447;-68
2024/04/17 08:55:52;;;;;;;78.53;74.63;;;21.90;1.00;;;;;;2614098;54;20412;-68
2024/04/17 08:58:18;;;;;;;78.50;74.70;;;21.80;1.00;;;;;;2614867;54;20457;-68
2024/04/17 09:00:51;;;;;;;79.20;75.30;;;21.80;1.00;;;;;;2613360;47;20426;-68
2024/04/17 09:03:24;;;;;;;78.30;74.40;;;21.80;1.00;;;;;;2613316;54;20434;-68
2024/04/17 09:05:52;;;;;;;77.70;73.80;;;21.80;1.00;;;;;;2614450;54;20930;-68
2024/04/17 09:08:19;;;;;;;77.70;73.80;;;21.80;1.00;;;;;;2614120;54;20430;-68
2024/04/17 09:10:46;;;;;;;78.30;74.40;;;21.90;1.00;;;;;;2614005;47;20503;-68
2024/04/17 09:13:13;;;;;;;78.77;74.77;;;21.80;1.00;;;;;;2614092;54;20411;-68
2024/04/17 09:15:38;;;;;;;78.50;74.60;;;21.90;1.00;;;;;;2614381;39;21109;-68
2024/04/17 09:18:09;;;;;;;77.70;73.80;;;21.90;1.00;;;;;;2614018;31;21060;-68
2024/04/17 09:20:35;;;;;;;77.90;74.00;;;22.00;1.00;;;;;;2613614;54;20166;-68
2024/04/17 09:23:01;;;;;;;78.63;74.73;;;22.10;1.00;;;;;;2614300;51;20440;-68
2024/04/17 09:25:27;;;;;;;76.10;72.30;;;22.10;1.00;;;;;;2614032;54;20415;-68
2024/04/17 09:27:52;;;;;;;78.90;74.90;;;22.10;1.00;;;;;;2614270;54;20166;-68
2024/04/17 09:30:18;;;;;;;79.57;75.47;;;22.10;1.00;;;;;;2614123;46;20210;-67
2024/04/17 09:32:44;;;;;;;77.27;73.37;;;22.10;1.00;;;;;;2613952;54;20158;-67
2024/04/17 09:35:11;;;;;;;77.90;74.00;;;22.10;1.00;;;;;;2614192;54;20941;-68
2024/04/17 09:37:38;;;;;;;79.13;75.03;;;22.10;1.00;;;;;;2614626;54;20253;-73
2024/04/17 09:40:08;;;;;;;79.47;75.47;;;22.10;1.00;;;;;;2614569;47;20444;-73
2024/04/17 09:42:35;;;;;;;78.60;74.60;;;22.10;1.00;;;;;;2613590;54;20431;-73
2024/04/17 09:45:02;;;;;;;79.43;75.43;;;22.10;1.00;;;;;;2615050;39;20871;-73
2024/04/17 09:47:31;;;;;;;79.60;75.60;;;22.10;1.00;;;;;;2613906;49;20432;-71
2024/04/17 09:49:59;;;;;;;79.57;75.57;;;22.00;1.00;;;;;;2614217;47;20448;-71
2024/04/17 09:52:29;;;;;;;79.13;75.13;;;22.00;1.00;;;;;;2614468;54;20388;-72
2024/04/17 09:54:56;;;;;;;78.60;74.70;;;22.00;1.00;;;;;;2614569;39;20886;-72
2024/04/17 09:57:22;;;;;;;79.10;75.10;;;22.00;1.00;;;;;;2613904;54;20428;-67
2024/04/17 09:59:49;;;;;;;78.27;74.37;;;22.00;1.00;;;;;;2613878;54;20423;-68
2024/04/17 10:02:17;;;;;;;76.57;72.67;;;22.10;1.00;;;;;;2612142;47;20435;-68
2024/04/17 10:04:45;;;;;;;77.63;73.73;;;22.10;1.00;;;;;;2614133;54;20427;-70
2024/04/17 10:07:11;;;;;;;76.90;73.00;;;22.20;1.00;;;;;;2614027;54;21109;-67
2024/04/17 10:09:40;;;;;;;77.40;73.50;;;22.20;1.00;;;;;;2613578;47;20449;-69
2024/04/17 10:12:12;;;;;;;77.30;73.40;;;22.20;1.00;;;;;;2613033;54;20415;-69
2024/04/17 10:14:38;;;;;;;77.90;73.90;;;22.30;1.00;;;;;;2613803;54;20440;-69
2024/04/17 10:17:09;;;;;;;80.83;76.73;;;22.40;1.00;;;;;;2614053;47;20433;-67
2024/04/17 10:19:35;;;;;;;79.07;75.17;;;22.50;1.00;;;;;;2614006;54;20408;-68
2024/04/17 10:22:06;;;;;;;80.67;76.67;;;22.60;1.00;;;;;;2613171;54;20466;-68
2024/04/17 10:24:32;;;;;;;77.70;73.80;;;22.60;1.00;;;;;;2614072;39;20789;-68
2024/04/17 10:27:04;;;;;;;78.20;74.30;;;22.70;1.00;;;;;;2613830;39;20671;-68
2024/04/17 10:29:30;;;;;;;81.27;77.27;;;22.70;1.00;;;;;;2613389;54;20415;-68
2024/04/17 10:31:55;;;;;;;79.10;75.20;;;22.70;1.00;;;;;;2613195;47;20407;-67
2024/04/17 10:34:41;;;;;;;79.80;75.90;;;22.70;1.00;;;;;;2614191;54;20435;-68
2024/04/17 10:37:09;;;;;;;78.07;74.17;;;22.70;1.00;;;;;;2613627;54;20178;-69
2024/04/17 10:46:10;;;;;;;81.80;77.70;;;22.70;1.00;;;;;;2613307;54;20524;-64
2024/04/17 10:48:46;;;;;;;80.37;76.37;;;22.70;1.00;;;;;;2614034;47;20434;-64
2024/04/17 10:51:16;;;;;;;80.73;76.67;;;22.80;1.00;;;;;;2613863;39;20669;-65
2024/04/17 10:53:46;;;;;;;80.47;76.47;;;22.70;1.00;;;;;;2614140;54;20479;-65
2024/04/17 10:56:15;;;;;;;80.37;76.37;;;22.70;1.00;;;;;;2613759;54;20416;-68
2024/04/17 10:58:41;;;;;;;82.40;78.20;;;22.70;1.00;;;;;;2613773;54;20975;-68
2024/04/17 11:01:07;;;;;;;81.00;77.00;;;22.60;1.00;;;;;;2613449;54;20411;-68
2024/04/17 11:03:33;;;;;;;82.30;78.10;;;22.50;1.00;;;;;;2613946;47;20553;-69
2024/04/17 11:05:59;;;;;;;82.10;78.00;;;22.50;1.00;;;;;;2613580;47;20435;-67
2024/04/17 11:08:25;;;;;;;80.40;76.30;;;22.50;1.00;;;;;;2613973;47;20164;-70
2024/04/17 11:10:53;;;;;;;81.40;77.30;;;22.40;1.00;;;;;;2613366;47;20423;-68
2024/04/17 11:13:19;;;;;;;82.43;78.23;;;22.40;1.00;;;;;;2613325;47;20163;-67
2024/04/17 11:15:45;;;;;;;81.40;77.30;;;22.40;1.00;;;;;;2612570;54;20512;-67
2024/04/17 11:18:11;;;;;;;80.90;76.90;;;22.40;1.00;;;;;;2613623;47;20291;-67
2024/04/17 11:20:40;;;;;;;81.60;77.50;;;22.50;1.00;;;;;;2613692;54;20191;-67
2024/04/17 11:23:09;;;;;;;80.30;76.30;;;22.70;1.00;;;;;;2611932;51;20456;-67
2024/04/17 11:25:40;;;;;;;81.20;77.10;;;23.10;1.00;;;;;;2613804;39;20824;-67
2024/04/17 11:28:13;;;;;;;80.60;76.50;;;23.40;1.00;;;;;;2613296;54;20498;-67
2024/04/17 11:30:46;;;;;;;80.90;76.80;;;23.80;1.00;;;;;;2614521;39;20810;-67
2024/04/17 11:33:12;;;;;;;79.87;75.77;;;24.10;1.00;;;;;;2613711;47;20511;-67
2024/04/17 11:35:38;;;;;;;80.40;76.30;;;24.50;1.00;;;;;;2612764;54;20431;-67
2024/04/17 11:38:04;;;;;;;80.30;76.20;;;24.90;1.00;;;;;;2613293;54;20972;-67
2024/04/17 11:40:31;;;;;;;80.50;76.40;;;25.10;1.00;;;;;;2613545;54;20193;-68
2024/04/17 11:42:57;;;;;;;79.50;75.50;;;25.30;1.00;;;;;;2613725;54;20405;-68
2024/04/17 11:45:22;;;;;;;81.33;77.23;;;25.40;1.00;;;;;;2614253;39;20822;-68
2024/04/17 11:47:48;;;;;;;81.20;77.10;;;25.50;1.00;;;;;;2613106;54;20159;-67
2024/04/17 11:50:14;;;;;;;80.47;76.37;;;25.60;1.00;;;;;;2613872;54;20163;-67
2024/04/17 11:52:39;;;;;;;80.40;76.30;;;25.60;1.00;;;;;;2613528;54;20246;-68
2024/04/17 11:55:05;;;;;;;79.57;75.57;;;25.60;1.00;;;;;;2613467;54;20699;-67
2024/04/17 11:57:31;;;;;;;80.10;76.00;;;25.60;1.00;;;;;;2614193;54;20193;-74
2024/04/17 11:59:57;;;;;;;79.90;75.80;;;25.60;1.00;;;;;;2613746;54;20262;-74
2024/04/17 12:02:23;;;;;;;79.47;75.37;;;25.50;1.00;;;;;;2612533;54;20383;-75
2024/04/17 12:04:49;;;;;;;80.27;76.17;;;25.50;1.00;;;;;;2614150;54;20197;-75
2024/04/17 12:07:15;;;;;;;80.50;76.50;;;25.50;1.00;;;;;;2614605;39;20755;-66
2024/04/17 12:09:47;;;;;;;79.60;75.70;;;25.50;1.00;;;;;;2612862;54;20441;-66
2024/04/17 12:12:13;;;;;;;80.30;76.30;;;25.40;1.00;;;;;;2614491;54;20407;-67
2024/04/17 12:14:39;;;;;;;79.07;75.17;;;25.40;1.00;;;;;;2614574;54;20431;-66
2024/04/17 12:17:05;;;;;;;78.70;74.83;;;25.30;1.00;;;;;;2614336;54;20527;-67
2024/04/17 12:19:30;;;;;;;79.20;75.37;;;25.20;1.00;;;;;;2613353;54;20411;-65
2024/04/17 12:21:56;;;;;;;78.97;75.17;;;25.10;1.00;;;;;;2614603;54;20511;-65
2024/04/17 12:26:49;;;;;;;79.07;75.27;;;25.10;1.00;;;;;;2614216;54;20158;-65
2024/04/17 12:27:09;;;;;;;79.50;75.60;;;24.90;1.00;;;;;;2613892;47;20198;-65
2024/04/17 12:29:35;;;;;;;78.90;75.10;;;24.90;1.00;;;;;;2614167;54;20412;-66
2024/04/17 12:32:00;;;;;;;79.67;75.77;;;24.90;1.00;;;;;;2613821;54;20430;-66
2024/04/17 12:34:26;;;;;;;78.60;74.70;;;25.00;1.00;;;;;;2614256;54;20176;-66
2024/04/17 12:36:52;;;;;;;78.13;74.33;;;25.20;1.00;;;;;;2614320;54;20157;-66